createdAt,value
2022-11-22T00:01:29.183Z,10.80
2022-11-22T00:03:57.561Z,10.80
2022-11-22T00:06:25.999Z,10.90
2022-11-22T00:08:56.180Z,10.90
2022-11-22T00:11:26.152Z,10.90
2022-11-22T00:13:54.584Z,10.90
2022-11-22T00:16:22.986Z,10.80
2022-11-22T00:18:52.448Z,10.80
2022-11-22T00:21:20.887Z,10.80
2022-11-22T00:23:49.325Z,10.90
2022-11-22T00:26:19.126Z,10.80
2022-11-22T00:28:48.902Z,11.00
2022-11-22T00:31:19.046Z,11.00
2022-11-22T00:33:47.451Z,11.00
2022-11-22T00:36:17.177Z,11.10
2022-11-22T00:38:45.657Z,11.10
2022-11-22T00:41:14.039Z,11.00
2022-11-22T00:43:43.884Z,11.10
2022-11-22T00:46:12.329Z,11.00
2022-11-22T00:48:40.730Z,11.00
2022-11-22T00:51:09.188Z,11.00
2022-11-22T00:53:37.612Z,10.80
2022-11-22T00:56:06.282Z,10.70
2022-11-22T00:58:34.687Z,10.80
2022-11-22T01:01:04.563Z,10.80
2022-11-22T01:03:33.009Z,10.80
2022-11-22T01:06:01.503Z,10.90
2022-11-22T01:08:29.966Z,10.80
2022-11-22T01:10:59.410Z,10.90
2022-11-22T01:13:29.068Z,10.90
2022-11-22T01:16:01.268Z,10.90
2022-11-22T01:18:31.155Z,10.90
2022-11-22T01:20:59.628Z,10.80
2022-11-22T01:23:28.270Z,10.70
2022-11-22T01:25:56.794Z,10.80
2022-11-22T01:28:27.598Z,10.90
2022-11-22T01:30:56.610Z,10.90
2022-11-22T01:33:26.241Z,11.00
2022-11-22T01:35:56.215Z,10.90
2022-11-22T01:38:26.041Z,10.90
2022-11-22T01:40:55.337Z,10.90
2022-11-22T01:43:26.083Z,10.80
2022-11-22T01:45:56.072Z,10.80
2022-11-22T01:48:42.637Z,10.80
2022-11-22T01:51:18.155Z,10.80
2022-11-22T01:53:47.268Z,10.80
2022-11-22T01:56:18.477Z,10.80
2022-11-22T01:58:51.523Z,10.80
2022-11-22T02:01:21.509Z,10.70
2022-11-22T02:03:53.206Z,10.80
2022-11-22T02:06:26.553Z,10.70
2022-11-22T02:09:00.943Z,10.80
2022-11-22T02:11:34.050Z,10.80
2022-11-22T02:14:03.685Z,10.70
2022-11-22T02:16:33.095Z,10.80
2022-11-22T02:19:06.858Z,10.80
2022-11-22T02:21:36.868Z,10.70
2022-11-22T02:24:14.619Z,10.70
2022-11-22T02:26:45.589Z,10.70
2022-11-22T02:29:14.200Z,10.70
2022-11-22T02:31:46.653Z,10.70
2022-11-22T02:34:15.749Z,10.70
2022-11-22T02:36:47.126Z,10.60
2022-11-22T02:39:21.139Z,10.60
2022-11-22T02:41:51.910Z,10.60
2022-11-22T02:44:21.604Z,10.60
2022-11-22T02:46:51.616Z,10.50
2022-11-22T02:49:21.357Z,10.50
2022-11-22T02:51:50.402Z,10.50
2022-11-22T02:54:19.319Z,10.60
2022-11-22T02:56:47.930Z,10.60
2022-11-22T02:59:18.278Z,10.60
2022-11-22T03:01:50.147Z,10.50
2022-11-22T03:04:25.649Z,10.50
2022-11-22T03:06:58.692Z,10.60
2022-11-22T03:09:28.712Z,10.60
2022-11-22T03:11:58.261Z,10.50
2022-11-22T03:14:28.286Z,10.50
2022-11-22T03:16:57.308Z,10.50
2022-11-22T03:19:25.710Z,10.60
2022-11-22T03:21:54.382Z,10.70
2022-11-22T03:24:22.894Z,10.60
2022-11-22T03:26:51.814Z,10.60
2022-11-22T03:29:20.364Z,10.60
2022-11-22T03:31:51.531Z,10.50
2022-11-22T03:34:19.953Z,10.60
2022-11-22T03:36:48.413Z,10.50
2022-11-22T03:39:16.825Z,10.60
2022-11-22T03:41:45.271Z,10.50
2022-11-22T03:44:13.667Z,10.60
2022-11-22T03:46:42.182Z,10.60
2022-11-22T03:49:12.639Z,10.60
2022-11-22T03:51:41.127Z,10.60
2022-11-22T03:54:09.652Z,10.70
2022-11-22T03:56:38.419Z,10.60
2022-11-22T03:59:06.919Z,10.60
2022-11-22T04:01:37.427Z,10.60
2022-11-22T04:04:06.107Z,10.70
2022-11-22T04:06:36.223Z,10.70
2022-11-22T04:09:04.816Z,10.70
2022-11-22T04:11:33.574Z,10.70
2022-11-22T04:14:19.513Z,10.80
2022-11-22T04:16:49.093Z,10.70
2022-11-22T04:19:17.752Z,10.70
2022-11-22T04:21:46.593Z,10.80
2022-11-22T04:24:31.859Z,10.80
2022-11-22T04:27:01.049Z,10.80
2022-11-22T04:29:29.849Z,10.80
2022-11-22T04:32:15.845Z,10.80
2022-11-22T04:34:44.373Z,10.70
2022-11-22T04:37:14.587Z,10.70
2022-11-22T04:39:43.040Z,10.70
2022-11-22T04:42:28.922Z,10.70
2022-11-22T04:44:57.477Z,10.70
2022-11-22T04:47:48.856Z,10.80
2022-11-22T04:50:34.011Z,10.80
2022-11-22T04:53:03.982Z,10.80
2022-11-22T04:55:32.341Z,10.80
2022-11-22T04:58:00.753Z,10.70
2022-11-22T05:00:30.201Z,10.70
2022-11-22T05:02:59.461Z,10.70
2022-11-22T05:05:28.553Z,10.80
2022-11-22T05:07:57.499Z,10.80
2022-11-22T05:10:27.677Z,10.80
2022-11-22T05:12:57.288Z,10.70
2022-11-22T05:15:25.884Z,10.70
2022-11-22T05:17:54.240Z,10.80
2022-11-22T05:20:22.702Z,10.80
2022-11-22T05:23:08.460Z,10.70
2022-11-22T05:25:38.378Z,10.70
2022-11-22T05:28:06.956Z,10.70
2022-11-22T05:30:35.388Z,10.80
2022-11-22T05:33:04.100Z,10.90
2022-11-22T05:35:32.708Z,10.90
2022-11-22T05:38:01.607Z,10.90
2022-11-22T05:40:30.089Z,11.00
2022-11-22T05:43:02.255Z,11.00
2022-11-22T05:45:30.815Z,11.00
2022-11-22T05:47:59.325Z,11.10
2022-11-22T05:50:28.863Z,11.20
2022-11-22T05:53:02.119Z,11.30
2022-11-22T05:55:30.685Z,11.40
2022-11-22T05:58:02.700Z,11.40
2022-11-22T06:00:31.503Z,11.50
2022-11-22T06:03:03.538Z,11.50
2022-11-22T06:05:35.063Z,11.60
2022-11-22T06:08:06.085Z,11.60
2022-11-22T06:10:37.241Z,11.70
2022-11-22T06:13:08.101Z,11.80
2022-11-22T06:15:36.638Z,11.80
2022-11-22T06:18:05.293Z,11.80
2022-11-22T06:20:33.716Z,11.80
2022-11-22T06:23:02.443Z,11.80
2022-11-22T06:25:32.414Z,11.90
2022-11-22T06:28:01.363Z,11.90
2022-11-22T06:30:31.147Z,12.00
2022-11-22T06:32:59.736Z,12.00
2022-11-22T06:35:28.181Z,12.20
2022-11-22T06:38:00.682Z,12.30
2022-11-22T06:40:29.628Z,12.30
2022-11-22T06:42:58.011Z,12.30
2022-11-22T06:45:28.112Z,12.30
2022-11-22T06:47:59.582Z,12.30
2022-11-22T06:50:28.980Z,12.40
2022-11-22T06:52:57.378Z,12.40
2022-11-22T06:55:49.043Z,12.40
2022-11-22T06:58:14.289Z,12.50
2022-11-22T07:00:42.927Z,12.70
2022-11-22T07:03:12.799Z,12.60
2022-11-22T07:05:41.213Z,12.70
2022-11-22T07:08:13.696Z,12.80
2022-11-22T07:10:43.901Z,12.90
2022-11-22T07:13:12.306Z,12.90
2022-11-22T07:15:40.744Z,12.90
2022-11-22T07:18:09.147Z,12.90
2022-11-22T07:20:39.011Z,13.00
2022-11-22T07:23:07.403Z,13.00
2022-11-22T07:25:35.823Z,13.10
2022-11-22T07:28:04.373Z,13.10
2022-11-22T07:30:32.785Z,13.20
2022-11-22T07:33:02.366Z,13.20
2022-11-22T07:35:30.942Z,13.20
2022-11-22T07:38:01.291Z,13.10
2022-11-22T07:40:29.963Z,13.10
2022-11-22T07:42:58.896Z,13.00
2022-11-22T07:45:28.158Z,12.90
2022-11-22T07:47:56.813Z,12.80
2022-11-22T07:50:25.232Z,12.70
2022-11-22T07:52:57.106Z,12.70
2022-11-22T07:55:27.970Z,12.70
2022-11-22T07:58:00.511Z,12.70
2022-11-22T08:00:30.418Z,12.80
2022-11-22T08:02:59.428Z,12.90
2022-11-22T08:05:30.243Z,13.00
2022-11-22T08:07:58.751Z,13.10
2022-11-22T08:10:28.539Z,13.20
2022-11-22T08:13:00.505Z,13.20
2022-11-22T08:15:29.128Z,13.20
2022-11-22T08:17:57.514Z,13.20
2022-11-22T08:20:26.021Z,13.10
2022-11-22T08:22:54.489Z,13.10
2022-11-22T08:25:23.180Z,13.00
2022-11-22T08:27:52.999Z,12.80
2022-11-22T08:30:23.045Z,12.60
2022-11-22T08:32:51.902Z,12.50
2022-11-22T08:35:20.331Z,12.50
2022-11-22T08:37:49.808Z,12.40
2022-11-22T08:40:18.281Z,12.40
2022-11-22T08:42:46.707Z,12.30
2022-11-22T08:45:16.634Z,12.30
2022-11-22T08:47:45.010Z,12.30
2022-11-22T08:50:13.852Z,12.40
2022-11-22T08:52:42.228Z,12.50
2022-11-22T08:55:11.087Z,12.70
2022-11-22T08:57:39.512Z,12.80
2022-11-22T09:00:09.462Z,12.90
2022-11-22T09:02:41.685Z,12.90
2022-11-22T09:05:11.084Z,12.90
2022-11-22T09:10:28.133Z,12.80
2022-11-22T09:12:57.733Z,12.60
2022-11-22T09:15:27.829Z,12.40
2022-11-22T09:18:03.208Z,12.40
2022-11-22T09:20:31.732Z,12.20
2022-11-22T09:23:03.179Z,12.20
2022-11-22T09:25:31.910Z,12.10
2022-11-22T09:28:03.208Z,12.20
2022-11-22T09:30:32.345Z,12.20
2022-11-22T09:33:02.139Z,12.20
2022-11-22T09:35:30.596Z,12.30
2022-11-22T09:37:59.007Z,12.40
2022-11-22T09:40:27.450Z,12.30
2022-11-22T09:43:15.591Z,12.30
2022-11-22T09:46:12.532Z,12.30
2022-11-22T09:49:04.308Z,12.30
2022-11-22T09:51:38.436Z,12.20
2022-11-22T09:54:09.567Z,12.20
2022-11-22T09:56:39.829Z,12.20
2022-11-22T09:59:12.845Z,12.20
2022-11-22T10:01:46.587Z,12.20
2022-11-22T10:04:21.401Z,12.30
2022-11-22T10:06:54.866Z,12.30
2022-11-22T10:09:36.840Z,12.40
2022-11-22T10:12:12.177Z,12.60
2022-11-22T10:14:49.668Z,12.80
2022-11-22T10:17:37.323Z,12.90
2022-11-22T10:20:13.530Z,13.10
2022-11-22T10:22:42.254Z,13.10
2022-11-22T10:25:17.760Z,13.20
2022-11-22T10:27:49.152Z,13.30
2022-11-22T10:30:21.102Z,13.30
2022-11-22T10:33:01.243Z,13.30
2022-11-22T10:35:54.433Z,13.40
2022-11-22T10:38:48.706Z,13.40
2022-11-22T10:41:31.886Z,13.60
2022-11-22T10:44:11.774Z,13.70
2022-11-22T10:46:48.542Z,13.80
2022-11-22T10:49:25.786Z,13.80
2022-11-22T10:52:04.255Z,13.80
2022-11-22T10:54:42.657Z,13.90
2022-11-22T10:57:22.039Z,13.90
2022-11-22T11:00:02.830Z,14.00
2022-11-22T11:03:02.011Z,14.10
2022-11-22T11:05:37.309Z,14.10
2022-11-22T11:08:39.209Z,14.10
2022-11-22T11:10:59.962Z,14.20
2022-11-22T11:13:31.277Z,14.20
2022-11-22T11:16:02.762Z,14.20
2022-11-22T11:18:36.516Z,14.10
2022-11-22T11:21:07.123Z,14.20
2022-11-22T11:23:37.055Z,14.30
2022-11-22T11:26:20.526Z,14.50
2022-11-22T11:28:49.328Z,14.80
2022-11-22T11:31:19.128Z,14.90
2022-11-22T11:33:48.242Z,15.00
2022-11-22T11:36:19.945Z,14.90
2022-11-22T11:38:55.087Z,14.80
2022-11-22T11:41:26.711Z,14.60
2022-11-22T11:43:56.846Z,14.50
2022-11-22T11:46:27.274Z,14.40
2022-11-22T11:48:57.001Z,14.30
2022-11-22T11:51:33.005Z,14.30
2022-11-22T11:54:06.618Z,14.30
2022-11-22T11:56:47.394Z,14.30
2022-11-22T11:59:19.658Z,14.20
2022-11-22T12:02:03.537Z,14.30
2022-11-22T12:04:35.849Z,14.20
2022-11-22T12:07:17.436Z,14.10
2022-11-22T12:09:49.679Z,14.10
2022-11-22T12:12:37.266Z,14.00
2022-11-22T12:15:16.158Z,13.90
2022-11-22T12:17:54.018Z,13.70
2022-11-22T12:20:27.720Z,13.70
2022-11-22T12:23:06.984Z,13.60
2022-11-22T12:25:38.734Z,13.60
2022-11-22T12:28:19.902Z,13.50
2022-11-22T12:30:53.891Z,13.50
2022-11-22T12:33:27.788Z,13.50
2022-11-22T12:35:58.729Z,13.40
2022-11-22T12:38:33.174Z,13.30
2022-11-22T12:41:07.427Z,13.20
2022-11-22T12:43:42.695Z,13.10
2022-11-22T12:46:14.529Z,13.10
2022-11-22T12:48:49.154Z,13.10
2022-11-22T12:51:24.501Z,13.10
2022-11-22T12:53:56.687Z,13.10
2022-11-22T12:56:33.651Z,13.10
2022-11-22T12:59:07.868Z,13.10
2022-11-22T13:01:43.774Z,13.00
2022-11-22T13:04:19.532Z,13.10
2022-11-22T13:06:56.888Z,13.10
2022-11-22T13:09:30.568Z,13.20
2022-11-22T13:12:09.967Z,13.20
2022-11-22T13:14:41.270Z,13.30
2022-11-22T13:17:10.292Z,13.30
2022-11-22T13:19:46.750Z,13.20
2022-11-22T13:22:22.868Z,13.30
2022-11-22T13:25:05.166Z,13.30
2022-11-22T13:27:37.612Z,13.20
2022-11-22T13:30:06.941Z,13.20
2022-11-22T13:32:36.670Z,13.20
2022-11-22T13:35:18.617Z,13.30
2022-11-22T13:37:49.957Z,13.30
2022-11-22T13:40:30.834Z,13.30
2022-11-22T13:43:49.182Z,13.20
2022-11-22T13:47:03.552Z,13.10
2022-11-22T13:49:46.569Z,13.10
2022-11-22T13:52:50.514Z,13.10
2022-11-22T13:55:41.608Z,13.10
2022-11-22T13:58:50.458Z,13.20
2022-11-22T14:01:57.157Z,13.30
2022-11-22T14:04:43.803Z,13.20
2022-11-22T14:07:37.788Z,13.20
2022-11-22T14:10:29.794Z,13.20
2022-11-22T14:13:29.462Z,13.30
2022-11-22T14:16:14.013Z,13.40
2022-11-22T14:19:00.271Z,13.50
2022-11-22T14:21:47.549Z,13.60
2022-11-22T14:24:25.874Z,13.70
2022-11-22T14:27:01.248Z,13.70
2022-11-22T14:30:04.740Z,13.80
2022-11-22T14:32:56.826Z,13.80
2022-11-22T14:35:35.157Z,13.80
2022-11-22T14:38:40.157Z,13.90
2022-11-22T14:41:53.192Z,13.90
2022-11-22T14:44:28.367Z,13.90
2022-11-22T14:47:02.773Z,13.90
2022-11-22T14:49:40.381Z,14.00
2022-11-22T14:52:19.369Z,14.00
2022-11-22T14:54:52.198Z,14.00
2022-11-22T14:57:23.602Z,14.00
2022-11-22T15:00:21.228Z,14.00
2022-11-22T15:03:22.986Z,14.00
2022-11-22T15:09:13.961Z,14.00
2022-11-22T15:09:22.474Z,14.00
2022-11-22T15:12:06.705Z,13.90
2022-11-22T15:59:12.700Z,12.60
2022-11-22T16:01:43.847Z,12.60
2022-11-22T16:04:23.169Z,12.50
2022-11-22T16:06:52.878Z,12.50
2022-11-22T16:09:29.135Z,12.50
2022-11-22T16:12:02.319Z,12.50
2022-11-22T16:14:48.485Z,12.50
2022-11-22T16:17:31.853Z,12.50
2022-11-22T16:20:30.582Z,12.40
2022-11-22T16:23:25.327Z,12.40
2022-11-22T16:26:01.953Z,12.50
2022-11-22T16:28:35.866Z,12.50
2022-11-22T16:31:07.988Z,12.60
2022-11-22T16:33:37.619Z,12.60
2022-11-22T16:36:12.879Z,12.60
2022-11-22T16:38:43.053Z,12.80
2022-11-22T16:41:20.027Z,12.90
2022-11-22T16:43:51.185Z,12.90
2022-11-22T16:46:19.979Z,12.90
2022-11-22T16:48:48.741Z,13.00
2022-11-22T16:51:21.084Z,12.90
2022-11-22T16:53:51.270Z,13.00
2022-11-22T16:56:22.753Z,12.90
2022-11-22T16:58:52.588Z,12.90
2022-11-22T17:01:24.068Z,12.90
2022-11-22T17:03:55.013Z,12.90
2022-11-22T17:06:24.961Z,12.90
2022-11-22T17:08:55.042Z,12.90
2022-11-22T17:11:26.375Z,13.00
2022-11-22T17:13:56.178Z,13.00
2022-11-22T17:16:24.702Z,12.90
2022-11-22T17:18:54.106Z,13.00
2022-11-22T17:21:31.335Z,13.10
2022-11-22T17:24:04.676Z,13.10
2022-11-22T17:26:35.723Z,13.10
2022-11-22T17:29:04.218Z,13.20
2022-11-22T17:31:32.688Z,13.30
2022-11-22T17:34:01.616Z,13.30
2022-11-22T17:36:32.203Z,13.30
2022-11-22T17:39:02.382Z,13.30
2022-11-22T17:41:31.505Z,13.30
2022-11-22T17:44:01.466Z,13.40
2022-11-22T17:46:31.198Z,13.50
2022-11-22T17:49:00.718Z,13.50
2022-11-22T17:51:30.160Z,13.60
2022-11-22T17:54:00.319Z,13.60
2022-11-22T17:56:30.586Z,13.70
2022-11-22T17:59:01.315Z,13.80
2022-11-22T18:01:29.809Z,13.80
2022-11-22T18:03:58.225Z,13.90
2022-11-22T18:06:27.357Z,14.00
2022-11-22T18:08:55.810Z,14.00
2022-11-22T18:11:24.293Z,14.10
2022-11-22T18:13:52.711Z,14.10
2022-11-22T18:16:28.349Z,14.00
2022-11-22T18:18:58.410Z,14.00
2022-11-22T18:21:29.196Z,14.00
2022-11-22T18:23:59.245Z,13.90
2022-11-22T18:26:43.658Z,13.90
2022-11-22T18:32:04.032Z,13.70
2022-11-22T18:34:33.499Z,13.60
2022-11-22T18:37:03.949Z,13.50
2022-11-22T18:39:34.301Z,13.70
2022-11-22T18:42:03.353Z,13.70
2022-11-22T18:44:31.826Z,13.80
2022-11-22T18:47:00.261Z,13.90
2022-11-22T18:49:30.644Z,13.90
2022-11-22T18:51:59.444Z,13.90
2022-11-22T18:54:27.867Z,13.90
2022-11-22T18:56:56.306Z,13.90
2022-11-22T18:59:26.121Z,13.90
2022-11-22T19:01:54.583Z,13.90
2022-11-22T19:04:22.987Z,14.00
2022-11-22T19:06:52.894Z,14.00
2022-11-22T19:09:21.287Z,14.00
2022-11-22T19:11:52.586Z,13.90
2022-11-22T19:14:22.898Z,14.00
2022-11-22T19:16:51.338Z,14.00
2022-11-22T19:19:19.776Z,14.00
2022-11-22T19:21:48.177Z,14.00
2022-11-22T19:24:18.037Z,14.10
2022-11-22T19:26:46.398Z,14.10
2022-11-22T19:29:14.824Z,14.10
2022-11-22T19:31:43.342Z,14.10
2022-11-22T19:34:12.145Z,14.10
2022-11-22T19:36:43.669Z,14.10
2022-11-22T19:39:15.266Z,14.10
2022-11-22T19:41:46.372Z,14.10
2022-11-22T19:44:14.898Z,14.00
2022-11-22T19:46:43.296Z,14.10
2022-11-22T19:49:11.773Z,14.10
2022-11-22T19:51:40.195Z,14.10
2022-11-22T19:54:08.879Z,14.20
2022-11-22T19:56:38.999Z,14.20
2022-11-22T19:59:12.935Z,14.20
2022-11-22T20:01:41.456Z,14.20
2022-11-22T20:04:10.248Z,14.20
2022-11-22T20:06:39.635Z,14.20
2022-11-22T20:09:10.415Z,14.20
2022-11-22T20:11:39.751Z,14.20
2022-11-22T20:14:11.601Z,14.20
2022-11-22T20:16:41.789Z,14.20
2022-11-22T20:19:12.430Z,14.20
2022-11-22T20:21:41.467Z,14.20
2022-11-22T20:24:10.340Z,14.20
2022-11-22T20:26:38.791Z,14.20
2022-11-22T20:29:09.672Z,14.30
2022-11-22T20:31:40.904Z,14.20
2022-11-22T20:34:10.383Z,14.20
2022-11-22T20:36:38.857Z,14.20
2022-11-22T20:39:10.684Z,14.20
2022-11-22T20:41:40.541Z,14.20
2022-11-22T20:44:12.286Z,14.10
2022-11-22T20:46:42.630Z,14.00
2022-11-22T20:49:11.182Z,13.90
2022-11-22T20:51:40.126Z,13.90
2022-11-22T20:54:09.472Z,13.90
2022-11-22T20:56:38.197Z,13.90
2022-11-22T20:59:07.143Z,13.90
2022-11-22T21:01:35.754Z,13.90
2022-11-22T21:04:05.949Z,13.90
2022-11-22T21:06:36.973Z,13.90
2022-11-22T21:09:05.515Z,13.90
2022-11-22T21:11:34.712Z,13.90
2022-11-22T21:14:03.273Z,13.80
2022-11-22T21:16:32.321Z,13.80
2022-11-22T21:19:02.438Z,13.80
2022-11-22T21:21:34.839Z,13.70
2022-11-22T21:24:06.406Z,13.70
2022-11-22T21:26:35.284Z,13.70
2022-11-22T21:29:12.869Z,13.70
2022-11-22T21:31:44.363Z,13.70
2022-11-22T21:34:13.459Z,13.80
2022-11-22T21:36:43.225Z,13.80
2022-11-22T21:39:11.673Z,13.90
2022-11-22T21:41:41.092Z,13.90
2022-11-22T21:44:10.695Z,14.00
2022-11-22T21:46:39.566Z,14.00
2022-11-22T21:49:08.126Z,14.00
2022-11-22T21:51:38.470Z,14.10
2022-11-22T21:54:08.479Z,14.10
2022-11-22T21:56:37.318Z,14.10
2022-11-22T21:59:05.971Z,14.10
2022-11-22T22:01:34.794Z,14.10
2022-11-22T22:04:04.032Z,14.10
2022-11-22T22:06:33.343Z,14.10
2022-11-22T22:09:01.921Z,14.10
2022-11-22T22:11:31.818Z,14.10
2022-11-22T22:14:00.422Z,14.00
2022-11-22T22:16:28.895Z,14.00
2022-11-22T22:18:57.262Z,14.10
2022-11-22T22:21:25.773Z,14.10
2022-11-22T22:23:54.559Z,14.00
2022-11-22T22:26:23.115Z,14.00
2022-11-22T22:28:54.520Z,14.10
2022-11-22T22:31:24.281Z,14.00
2022-11-22T22:33:54.730Z,14.00
2022-11-22T22:36:24.557Z,14.00
2022-11-22T22:38:54.867Z,14.00
2022-11-22T22:41:24.416Z,14.00
2022-11-22T22:43:56.325Z,14.00
2022-11-22T22:46:26.911Z,14.10
2022-11-22T22:48:56.235Z,14.10
2022-11-22T22:51:31.845Z,14.10
2022-11-22T22:54:01.862Z,14.10
2022-11-22T22:56:31.867Z,14.10
2022-11-22T22:59:02.172Z,14.10
2022-11-22T23:01:32.127Z,14.10
2022-11-22T23:04:02.030Z,14.00
2022-11-22T23:06:31.913Z,14.00
2022-11-22T23:09:01.186Z,14.00
2022-11-22T23:11:44.983Z,13.90
2022-11-22T23:14:17.442Z,13.90
2022-11-22T23:16:46.104Z,13.90
2022-11-22T23:19:14.719Z,13.90
2022-11-22T23:21:43.895Z,13.90
2022-11-22T23:24:13.964Z,13.90
2022-11-22T23:26:42.374Z,13.90
2022-11-22T23:29:10.906Z,13.90
2022-11-22T23:31:40.885Z,13.90
2022-11-22T23:34:10.594Z,13.90
2022-11-22T23:36:40.921Z,13.90
2022-11-22T23:39:10.195Z,13.80
2022-11-22T23:41:38.677Z,13.80
2022-11-22T23:44:07.458Z,13.80
2022-11-22T23:46:35.880Z,13.80
2022-11-22T23:49:06.316Z,13.70
2022-11-22T23:51:36.478Z,13.60
2022-11-22T23:54:09.328Z,13.50
2022-11-22T23:56:37.991Z,13.50
2022-11-22T23:59:06.867Z,13.60
